Terminal Aerodrome Forecast
Issued by NWS

Home | Current Version | Previous Version | Graphics & Text | Print | Product List | Glossary On
Versions: 1 2 3 4 5 6 7 8 9 10 11 12 13 14 15 16 17
000
FTUS43 KGRB 281700
TAFAUW
TAF
KAUW 281720Z 2818/2918 23004KT P6SM SCT050 BKN250
     FM290000 22004KT P6SM SCT250
     FM290600 VRB03KT P6SM SCT250
      TEMPO 2908/2911 3SM BR
     FM291100 31004KT 4SM BR VCSH SCT025 BKN060
     FM291400 35010KT P6SM VCSH SCT009 OVC020
      TEMPO 2915/2918 5SM -SHRA BR BKN009=

USA.gov is the U.S. government's official web portal to all federal, state and local government web resources and services.